Time;durP1;ratioP1;P1;durP2;ratioP2;P2;SDS_P1;SDS_P2;PMS_P1;PMS_P2;Temp;Humidity;BMP_temperature;BMP_pressure;BME280_temperature;BME280_humidity;BME280_pressure;Samples;Min_cycle;Max_cycle;Signal;HPM_P1;HPM_P2
2023/02/07 00:00:13;;;;;;;24.27;17.20;;;-1.50;1.00;;;;;;5056396;28;20537;-54
2023/02/07 00:02:43;;;;;;;19.17;15.60;;;-1.40;1.00;;;;;;5057404;28;20631;-54
2023/02/07 00:05:09;;;;;;;25.80;17.20;;;-1.40;1.00;;;;;;5049248;28;20447;-55
2023/02/07 00:07:34;;;;;;;26.27;17.77;;;-1.40;1.00;;;;;;5057746;28;20442;-54
2023/02/07 00:10:00;;;;;;;29.73;18.37;;;-1.50;1.00;;;;;;5060911;28;20280;-55
2023/02/07 00:12:26;;;;;;;22.67;17.17;;;-1.30;1.00;;;;;;5052393;28;20192;-56
2023/02/07 00:14:51;;;;;;;23.93;16.87;;;-1.50;1.00;;;;;;5051868;28;20263;-57
2023/02/07 00:17:17;;;;;;;24.13;16.23;;;-1.40;1.00;;;;;;5058122;28;20646;-54
2023/02/07 00:19:43;;;;;;;22.93;15.33;;;-1.40;1.00;;;;;;5043554;28;20244;-55
2023/02/07 00:22:08;;;;;;;20.47;14.80;;;-1.40;1.00;;;;;;5057662;28;20218;-55
2023/02/07 00:24:35;;;;;;;26.40;16.80;;;-1.50;1.00;;;;;;5058221;28;20189;-54
2023/02/07 00:27:00;;;;;;;20.17;14.53;;;-1.60;1.00;;;;;;5058287;28;20204;-55
2023/02/07 00:29:26;;;;;;;20.90;14.07;;;-1.60;1.00;;;;;;5060679;28;20840;-54
2023/02/07 00:31:52;;;;;;;19.30;15.43;;;-1.50;1.00;;;;;;5053683;28;20196;-55
2023/02/07 00:34:17;;;;;;;20.37;15.07;;;-1.70;1.00;;;;;;5053888;28;20684;-55
2023/02/07 00:36:43;;;;;;;20.33;14.70;;;-1.70;1.00;;;;;;5051147;28;20192;-55
2023/02/07 00:39:14;;;;;;;22.60;15.40;;;-1.60;1.00;;;;;;5051927;28;20515;-54
2023/02/07 00:41:40;;;;;;;21.63;15.40;;;-1.60;1.00;;;;;;5054015;28;20246;-56
2023/02/07 00:44:06;;;;;;;21.40;15.27;;;-1.70;1.00;;;;;;5053781;28;20765;-54
2023/02/07 00:46:33;;;;;;;24.20;15.67;;;-1.70;1.00;;;;;;5053546;28;20473;-56
2023/02/07 00:48:59;;;;;;;26.53;17.40;;;-1.70;1.00;;;;;;5048519;28;20463;-56
2023/02/07 00:51:25;;;;;;;25.50;16.30;;;-1.80;1.00;;;;;;5057044;28;20471;-56
2023/02/07 00:53:55;;;;;;;27.50;17.70;;;-1.80;1.00;;;;;;5054746;28;20551;-54
2023/02/07 00:56:22;;;;;;;32.90;19.40;;;-1.80;1.00;;;;;;5050748;28;20253;-54
2023/02/07 00:58:48;;;;;;;27.27;18.20;;;-1.90;1.00;;;;;;5046532;28;20550;-55
2023/02/07 01:01:14;;;;;;;30.80;21.10;;;-1.90;1.00;;;;;;5056086;28;20540;-56
2023/02/07 01:03:40;;;;;;;26.47;19.30;;;-1.90;1.00;;;;;;5059378;28;20232;-55
2023/02/07 01:06:07;;;;;;;27.43;18.47;;;-1.90;1.00;;;;;;5052718;28;20797;-55
2023/02/07 01:08:33;;;;;;;27.37;20.13;;;-1.90;1.00;;;;;;5059302;28;20180;-54
2023/02/07 01:11:03;;;;;;;25.23;17.60;;;-1.90;1.00;;;;;;5051610;28;20453;-55
2023/02/07 01:13:29;;;;;;;27.50;19.67;;;-1.90;1.00;;;;;;5047126;28;20197;-54
2023/02/07 01:15:54;;;;;;;26.83;20.00;;;-1.90;1.00;;;;;;5044841;28;20508;-55
2023/02/07 01:18:20;;;;;;;29.47;19.70;;;-2.00;1.00;;;;;;5051870;28;20500;-56
2023/02/07 01:20:46;;;;;;;28.53;16.17;;;-2.00;1.00;;;;;;5052273;28;20196;-56
2023/02/07 01:23:13;;;;;;;28.87;16.40;;;-2.00;1.00;;;;;;5054757;28;20681;-55
2023/02/07 01:25:40;;;;;;;24.50;14.93;;;-2.10;1.00;;;;;;5060514;28;20187;-55
2023/02/07 01:28:05;;;;;;;18.53;14.47;;;-2.10;1.00;;;;;;5047655;28;20467;-55
2023/02/07 01:30:31;;;;;;;26.87;15.60;;;-2.20;1.00;;;;;;5056795;28;20448;-54
2023/02/07 01:32:57;;;;;;;22.20;15.17;;;-2.20;1.00;;;;;;5053862;28;20465;-54
2023/02/07 01:35:22;;;;;;;20.63;15.53;;;-2.20;1.00;;;;;;5049880;28;20192;-54
2023/02/07 01:37:48;;;;;;;23.07;15.87;;;-2.20;1.00;;;;;;5063321;28;20188;-54
2023/02/07 01:40:15;;;;;;;23.60;16.03;;;-2.20;1.00;;;;;;5049235;28;20279;-55
2023/02/07 01:42:40;;;;;;;21.20;14.73;;;-2.10;1.00;;;;;;5056185;28;20730;-54
2023/02/07 01:45:35;;;;;;;19.73;15.17;;;-2.20;1.00;;;;;;5053515;28;20438;-54
2023/02/07 01:48:05;;;;;;;22.73;15.60;;;-2.20;1.00;;;;;;5050412;28;20205;-56
2023/02/07 01:50:32;;;;;;;29.20;17.80;;;-2.30;1.00;;;;;;5055350;28;20468;-54
2023/02/07 01:53:00;;;;;;;24.37;17.73;;;-2.20;1.00;;;;;;5052943;28;20482;-54
2023/02/07 01:55:32;;;;;;;27.37;17.53;;;-2.20;1.00;;;;;;5059758;28;20495;-55
2023/02/07 01:58:01;;;;;;;25.30;17.97;;;-2.30;1.00;;;;;;5052966;28;20463;-54
2023/02/07 02:00:28;;;;;;;25.43;17.80;;;-2.30;1.00;;;;;;5053815;28;20454;-54
2023/02/07 02:02:54;;;;;;;27.87;19.17;;;-2.30;1.00;;;;;;5054388;28;20496;-54
2023/02/07 02:05:21;;;;;;;25.33;17.53;;;-2.40;1.00;;;;;;5056394;28;20442;-55
2023/02/07 02:07:47;;;;;;;28.17;17.80;;;-2.40;1.00;;;;;;5060789;28;20177;-56
2023/02/07 02:10:23;;;;;;;28.00;17.70;;;-2.40;1.00;;;;;;5058971;28;20450;-55
2023/02/07 02:13:04;;;;;;;26.70;16.93;;;-2.40;1.00;;;;;;5051276;28;20464;-54
2023/02/07 02:15:38;;;;;;;28.77;18.83;;;-2.50;1.00;;;;;;5058569;28;20483;-55
2023/02/07 02:18:17;;;;;;;23.23;16.80;;;-2.50;1.00;;;;;;5056325;28;20446;-54
2023/02/07 02:21:01;;;;;;;21.37;15.97;;;-2.50;1.00;;;;;;5055708;28;20443;-56
2023/02/07 02:23:54;;;;;;;25.10;15.70;;;-2.50;1.00;;;;;;5050517;28;21110;-55
2023/02/07 02:26:53;;;;;;;24.50;14.57;;;-2.50;1.00;;;;;;5058604;28;20454;-55
2023/02/07 02:29:41;;;;;;;23.40;14.97;;;-2.50;1.00;;;;;;5052721;28;20454;-56
2023/02/07 02:32:37;;;;;;;20.50;14.03;;;-2.50;1.00;;;;;;5056650;28;20449;-55
2023/02/07 02:35:21;;;;;;;27.27;15.87;;;-2.60;1.00;;;;;;5062811;28;20472;-55
2023/02/07 02:38:04;;;;;;;22.70;14.40;;;-2.60;1.00;;;;;;5055348;28;20572;-54
2023/02/07 02:40:57;;;;;;;21.80;15.53;;;-2.70;1.00;;;;;;5063110;28;20430;-54
2023/02/07 02:43:45;;;;;;;22.00;14.27;;;-2.70;1.00;;;;;;5053497;28;20471;-55
2023/02/07 02:46:27;;;;;;;18.77;14.87;;;-2.80;1.00;;;;;;5060839;28;20553;-56
2023/02/07 02:48:55;;;;;;;24.93;14.63;;;-2.70;1.00;;;;;;5056934;28;20853;-56
2023/02/07 02:51:20;;;;;;;25.47;15.90;;;-2.70;1.00;;;;;;5058670;28;20451;-55
2023/02/07 02:53:53;;;;;;;21.13;13.83;;;-2.70;1.00;;;;;;5058818;28;20576;-55
2023/02/07 02:56:49;;;;;;;22.07;13.90;;;-2.70;1.00;;;;;;5053191;28;20204;-54
2023/02/07 02:59:23;;;;;;;16.57;13.60;;;-2.70;1.00;;;;;;5051423;28;20820;-54
2023/02/07 03:02:09;;;;;;;25.23;15.63;;;-2.80;1.00;;;;;;5057808;28;20459;-55
2023/02/07 03:05:02;;;;;;;20.93;14.33;;;-2.80;1.00;;;;;;5056709;28;20449;-55
2023/02/07 03:07:47;;;;;;;20.50;14.90;;;-3.50;1.00;;;;;;5054245;28;20454;-54
2023/02/07 03:10:18;;;;;;;19.33;13.10;;;-2.80;1.00;;;;;;5062908;28;20442;-56
2023/02/07 03:13:15;;;;;;;18.40;12.57;;;-2.90;1.00;;;;;;5053935;28;20965;-55
2023/02/07 03:16:06;;;;;;;20.53;15.27;;;-2.80;1.00;;;;;;5057432;28;21573;-54
2023/02/07 03:19:07;;;;;;;20.50;13.27;;;-2.80;1.00;;;;;;5056370;28;20937;-54
2023/02/07 03:21:36;;;;;;;25.67;16.03;;;-2.80;1.00;;;;;;5037608;28;21006;-55
2023/02/07 03:24:09;;;;;;;22.33;14.00;;;-2.80;1.00;;;;;;5054751;28;20467;-55
2023/02/07 03:26:37;;;;;;;24.60;15.50;;;-2.80;1.00;;;;;;5048990;28;20944;-54
2023/02/07 03:29:05;;;;;;;19.70;13.87;;;-2.80;1.00;;;;;;5055122;28;20486;-54
2023/02/07 03:31:33;;;;;;;24.47;15.70;;;-2.90;1.00;;;;;;5056552;28;20427;-54
2023/02/07 03:34:17;;;;;;;19.43;14.83;;;-2.90;1.00;;;;;;5056553;28;20989;-55
2023/02/07 03:37:13;;;;;;;20.90;14.87;;;-2.90;1.00;;;;;;5056714;28;20534;-54
2023/02/07 03:39:39;;;;;;;21.47;14.83;;;-2.90;1.00;;;;;;5056370;28;20442;-54
2023/02/07 03:42:22;;;;;;;22.67;14.70;;;-3.00;1.00;;;;;;5059004;28;21012;-54
2023/02/07 03:44:50;;;;;;;19.83;14.13;;;-2.90;1.00;;;;;;5060342;28;20477;-55
2023/02/07 03:47:18;;;;;;;22.77;14.50;;;-2.80;1.00;;;;;;5052420;28;20437;-55
2023/02/07 03:49:43;;;;;;;21.73;15.20;;;-2.70;1.00;;;;;;5053212;28;20818;-54
2023/02/07 03:52:09;;;;;;;20.73;14.83;;;-2.70;1.00;;;;;;5060360;28;20536;-54
2023/02/07 03:54:34;;;;;;;20.87;14.97;;;-2.70;1.00;;;;;;5051551;28;20223;-54
2023/02/07 03:57:00;;;;;;;29.33;14.50;;;-2.70;1.00;;;;;;5050834;28;20569;-54
2023/02/07 03:59:27;;;;;;;24.00;14.00;;;-2.80;1.00;;;;;;5049729;28;20279;-54
2023/02/07 04:01:52;;;;;;;19.67;13.47;;;-2.90;1.00;;;;;;5050796;28;20195;-55
2023/02/07 04:04:18;;;;;;;19.40;15.10;;;-2.90;1.00;;;;;;5060904;28;20969;-55
2023/02/07 04:06:44;;;;;;;21.23;15.20;;;-2.90;1.00;;;;;;5049966;28;20191;-54
2023/02/07 04:09:09;;;;;;;23.03;15.63;;;-2.80;1.00;;;;;;5053618;28;20245;-55
2023/02/07 04:11:35;;;;;;;24.23;16.10;;;-2.80;1.00;;;;;;5059760;28;20415;-55
2023/02/07 04:14:01;;;;;;;20.43;14.07;;;-2.80;1.00;;;;;;5039597;28;20191;-55
2023/02/07 04:16:27;;;;;;;25.53;16.80;;;-2.80;1.00;;;;;;5053127;28;20176;-55
2023/02/07 04:18:52;;;;;;;22.90;15.40;;;-2.90;1.00;;;;;;5057447;28;20192;-54
2023/02/07 04:21:18;;;;;;;21.97;14.13;;;-3.00;1.00;;;;;;5051574;28;20470;-54
2023/02/07 04:23:43;;;;;;;23.37;16.03;;;-3.00;1.00;;;;;;5058327;28;20211;-54
2023/02/07 04:26:09;;;;;;;24.90;15.33;;;-3.00;1.00;;;;;;5060472;28;20207;-55
2023/02/07 04:28:35;;;;;;;19.27;14.27;;;-3.00;1.00;;;;;;5056369;28;20202;-54
2023/02/07 04:31:01;;;;;;;18.60;14.80;;;-3.10;1.00;;;;;;5047425;28;20181;-54
2023/02/07 04:33:27;;;;;;;25.00;16.63;;;-3.10;1.00;;;;;;5051723;28;20438;-54
2023/02/07 04:35:55;;;;;;;22.80;14.90;;;-3.00;1.00;;;;;;5050230;28;20443;-55
2023/02/07 04:38:21;;;;;;;21.53;15.23;;;-3.00;1.00;;;;;;5054089;28;20199;-54
2023/02/07 04:40:46;;;;;;;21.93;14.87;;;-3.10;1.00;;;;;;5063369;28;20434;-54
2023/02/07 04:43:12;;;;;;;23.03;15.40;;;-3.10;1.00;;;;;;5055234;28;21526;-55
2023/02/07 04:45:37;;;;;;;22.37;15.43;;;-3.10;1.00;;;;;;5053673;28;20188;-56
2023/02/07 04:48:03;;;;;;;22.33;15.77;;;-3.20;1.00;;;;;;5056938;28;20185;-55
2023/02/07 04:50:29;;;;;;;21.73;14.87;;;-3.20;1.00;;;;;;5048341;28;20186;-56
2023/02/07 04:52:54;;;;;;;23.77;15.13;;;-3.20;1.00;;;;;;5054270;28;21111;-54
2023/02/07 04:55:21;;;;;;;22.53;14.20;;;-3.20;1.00;;;;;;5055986;28;20198;-55
2023/02/07 04:57:47;;;;;;;24.10;15.23;;;-3.20;1.00;;;;;;5057923;28;20299;-54
2023/02/07 05:00:13;;;;;;;23.83;15.27;;;-3.20;1.00;;;;;;5059154;28;20465;-56
2023/02/07 05:02:39;;;;;;;33.40;14.50;;;-3.20;1.00;;;;;;5051708;28;20565;-59
2023/02/07 05:05:05;;;;;;;22.30;15.00;;;-3.20;1.00;;;;;;5046711;28;20546;-57
2023/02/07 05:07:31;;;;;;;19.43;14.10;;;-3.20;1.00;;;;;;5056808;28;20495;-53
2023/02/07 05:09:57;;;;;;;25.37;17.90;;;-3.30;1.00;;;;;;5058419;28;20444;-53
2023/02/07 05:12:23;;;;;;;20.10;13.37;;;-3.30;1.00;;;;;;5047673;28;20450;-56
2023/02/07 05:14:48;;;;;;;22.90;15.93;;;-3.50;1.00;;;;;;5048316;28;20186;-55
2023/02/07 05:17:14;;;;;;;23.87;15.70;;;-3.30;1.00;;;;;;5056606;28;20458;-54
2023/02/07 05:19:40;;;;;;;21.77;15.73;;;-3.50;1.00;;;;;;5060792;28;20923;-54
2023/02/07 05:22:05;;;;;;;22.23;14.50;;;-3.40;1.00;;;;;;5053720;28;20646;-54
2023/02/07 05:24:31;;;;;;;24.20;14.00;;;-3.40;1.00;;;;;;5054369;28;20640;-54
2023/02/07 05:26:57;;;;;;;18.47;13.43;;;-3.40;1.00;;;;;;5058399;28;20192;-55
2023/02/07 05:29:22;;;;;;;24.10;14.93;;;-3.40;1.00;;;;;;5058543;28;20180;-55
2023/02/07 05:34:32;;;;;;;26.10;16.97;;;-3.40;1.00;;;;;;5052947;28;20538;-54
2023/02/07 05:36:58;;;;;;;25.60;14.37;;;-3.40;1.00;;;;;;5062356;28;20433;-55
2023/02/07 05:39:23;;;;;;;21.60;14.63;;;-3.30;1.00;;;;;;5054702;28;20720;-56
2023/02/07 05:41:49;;;;;;;20.90;14.83;;;-3.30;1.00;;;;;;5048776;28;20216;-56
2023/02/07 05:44:14;;;;;;;17.60;13.30;;;-3.30;1.00;;;;;;5059015;28;20215;-56
2023/02/07 05:46:40;;;;;;;19.90;13.83;;;-3.30;1.00;;;;;;5063800;28;20180;-56
2023/02/07 05:49:06;;;;;;;22.90;13.07;;;-3.30;1.00;;;;;;5057553;28;20180;-56
2023/02/07 05:51:32;;;;;;;20.20;12.57;;;-3.30;1.00;;;;;;5057541;28;20284;-54
2023/02/07 05:53:57;;;;;;;22.10;13.90;;;-3.30;1.00;;;;;;5059899;28;20589;-57
2023/02/07 05:56:23;;;;;;;22.00;13.33;;;-3.20;1.00;;;;;;5058519;28;20191;-58
2023/02/07 05:58:48;;;;;;;15.10;11.93;;;-3.20;1.00;;;;;;5060142;28;20287;-61
2023/02/07 06:01:14;;;;;;;20.30;12.63;;;-3.20;1.00;;;;;;5062317;28;20232;-57
2023/02/07 06:03:39;;;;;;;20.57;13.40;;;-3.20;1.00;;;;;;5059744;28;20604;-57
2023/02/07 06:06:05;;;;;;;16.33;11.30;;;-3.40;1.00;;;;;;5056977;28;20543;-57
2023/02/07 06:08:31;;;;;;;23.13;13.57;;;-3.40;1.00;;;;;;5060968;28;20192;-57
2023/02/07 06:10:57;;;;;;;22.50;12.70;;;-1.00;1.00;;;;;;5062824;28;21004;-56
2023/02/07 06:13:22;;;;;;;20.83;12.33;;;-3.40;1.00;;;;;;5057048;28;20193;-57
2023/02/07 06:15:48;;;;;;;18.60;12.23;;;-3.40;1.00;;;;;;5059934;28;20622;-56
2023/02/07 06:18:13;;;;;;;23.63;13.40;;;-3.30;1.00;;;;;;5058802;28;20184;-56
2023/02/07 06:20:39;;;;;;;17.93;12.93;;;-3.40;1.00;;;;;;5063400;28;20653;-57
2023/02/07 06:23:05;;;;;;;19.13;12.50;;;-3.50;1.00;;;;;;5058827;28;20199;-57
2023/02/07 06:25:30;;;;;;;18.80;11.97;;;-3.40;1.00;;;;;;5062869;28;20373;-58
2023/02/07 06:27:56;;;;;;;16.47;11.40;;;-3.40;1.00;;;;;;5063053;28;20271;-57
2023/02/07 06:30:22;;;;;;;17.20;12.13;;;;;;;;;;5060369;28;20686;-57
2023/02/07 06:32:48;;;;;;;19.77;12.37;;;-3.50;1.00;;;;;;5064887;28;20695;-56
2023/02/07 06:35:14;;;;;;;21.27;13.30;;;-3.50;1.00;;;;;;5057949;28;20450;-58
2023/02/07 06:37:39;;;;;;;23.57;14.30;;;-3.50;1.00;;;;;;5061402;28;20184;-56
2023/02/07 06:40:06;;;;;;;22.37;13.17;;;-3.50;1.00;;;;;;5068521;28;20192;-57
2023/02/07 06:42:31;;;;;;;21.87;12.83;;;-3.50;1.00;;;;;;5063370;28;20191;-56
2023/02/07 06:44:57;;;;;;;23.70;13.57;;;-3.50;1.00;;;;;;5069427;28;20755;-55
2023/02/07 06:47:23;;;;;;;19.33;12.37;;;-3.40;1.00;;;;;;5063377;28;20254;-57
2023/02/07 06:49:48;;;;;;;19.37;13.40;;;-3.30;1.00;;;;;;5065266;28;20184;-56
2023/02/07 06:52:14;;;;;;;21.47;13.27;;;-3.10;1.00;;;;;;5058753;28;20423;-56
2023/02/07 06:54:40;;;;;;;28.10;14.13;;;-2.90;1.00;;;;;;5062990;28;20223;-57
2023/02/07 06:57:06;;;;;;;23.00;14.53;;;-2.80;1.00;;;;;;5059618;28;20533;-57
2023/02/07 06:59:33;;;;;;;37.97;13.87;;;-2.70;1.00;;;;;;5060669;28;20205;-57
2023/02/07 07:01:59;;;;;;;23.37;12.53;;;-2.60;1.00;;;;;;5057581;28;20515;-59
2023/02/07 07:04:25;;;;;;;21.13;14.47;;;-2.90;1.00;;;;;;5056880;28;20207;-58
2023/02/07 07:06:51;;;;;;;20.20;14.23;;;-2.60;1.00;;;;;;5054471;28;20671;-57
2023/02/07 07:09:17;;;;;;;25.93;14.03;;;-2.60;1.00;;;;;;5057113;28;20450;-57
2023/02/07 07:11:43;;;;;;;19.20;13.43;;;-2.70;1.00;;;;;;5055631;28;20471;-57
2023/02/07 07:14:10;;;;;;;27.17;15.63;;;-2.70;1.00;;;;;;5056968;28;20533;-58
2023/02/07 07:16:35;;;;;;;21.07;14.90;;;-2.70;1.00;;;;;;5054737;28;20540;-57
2023/02/07 07:19:01;;;;;;;21.70;12.93;;;-2.70;1.00;;;;;;5055531;28;20450;-57
2023/02/07 07:21:27;;;;;;;20.67;15.10;;;-2.70;1.00;;;;;;5059771;28;20767;-56
2023/02/07 07:23:53;;;;;;;31.10;15.67;;;-2.80;1.00;;;;;;5059835;28;20220;-56
2023/02/07 07:26:19;;;;;;;25.33;13.53;;;-2.80;1.00;;;;;;5053110;28;20450;-57
2023/02/07 07:28:45;;;;;;;26.87;14.90;;;-2.80;1.00;;;;;;5056002;28;20544;-57
2023/02/07 07:31:12;;;;;;;24.77;15.27;;;-2.70;1.00;;;;;;5053867;28;20536;-57
2023/02/07 07:33:38;;;;;;;18.80;14.00;;;-2.60;1.00;;;;;;5060169;28;20192;-58
2023/02/07 07:36:04;;;;;;;20.30;13.57;;;-2.60;1.00;;;;;;5059926;28;20446;-59
2023/02/07 07:38:30;;;;;;;23.60;14.50;;;-2.60;1.00;;;;;;5051580;28;20809;-56
2023/02/07 07:40:56;;;;;;;26.83;15.00;;;-2.60;1.00;;;;;;5052801;28;20455;-59
2023/02/07 07:43:22;;;;;;;23.13;15.30;;;-2.50;1.00;;;;;;5053998;28;20473;-57
2023/02/07 07:45:55;;;;;;;26.13;16.00;;;-2.50;1.00;;;;;;5051545;28;20733;-57
2023/02/07 07:48:22;;;;;;;22.73;13.93;;;-2.50;1.00;;;;;;5058743;28;20176;-58
2023/02/07 07:50:49;;;;;;;26.57;16.70;;;-2.50;1.00;;;;;;5057825;28;20518;-57
2023/02/07 07:53:15;;;;;;;23.53;14.73;;;-2.50;1.00;;;;;;5060733;28;20482;-57
2023/02/07 07:55:41;;;;;;;23.23;14.37;;;-2.70;1.00;;;;;;5051368;28;20493;-56
2023/02/07 07:58:06;;;;;;;21.07;14.03;;;-2.70;1.00;;;;;;5049226;28;20972;-57
2023/02/07 08:00:32;;;;;;;25.53;15.27;;;-2.70;1.00;;;;;;5051162;28;20453;-56
2023/02/07 08:02:58;;;;;;;22.70;14.23;;;-2.60;1.00;;;;;;5066060;28;20489;-56
2023/02/07 08:05:24;;;;;;;21.47;15.07;;;-2.50;1.00;;;;;;5061068;28;20455;-57
2023/02/07 08:07:49;;;;;;;22.43;15.03;;;-2.50;1.00;;;;;;5052530;28;20189;-57
2023/02/07 08:10:16;;;;;;;26.70;16.07;;;-1.90;1.00;;;;;;5057856;28;20176;-56
2023/02/07 08:12:42;;;;;;;23.37;14.30;;;-2.40;1.00;;;;;;5053776;28;20245;-56
2023/02/07 08:15:08;;;;;;;21.13;15.40;;;-2.30;1.00;;;;;;5060157;28;20530;-57
2023/02/07 08:17:35;;;;;;;23.53;15.57;;;-2.20;1.00;;;;;;5052143;28;20811;-57
2023/02/07 08:20:01;;;;;;;22.83;15.80;;;-2.10;1.00;;;;;;5058561;28;20465;-56
2023/02/07 08:22:27;;;;;;;28.70;15.30;;;-2.00;1.00;;;;;;5058713;28;20465;-56
2023/02/07 08:24:53;;;;;;;23.90;14.00;;;-2.00;1.00;;;;;;5063749;28;20436;-58
2023/02/07 08:27:18;;;;;;;28.70;17.50;;;-1.90;1.00;;;;;;5059750;28;20196;-57
2023/02/07 08:29:44;;;;;;;30.90;16.50;;;-2.00;1.00;;;;;;5056189;28;20672;-57
2023/02/07 08:32:10;;;;;;;23.30;13.33;;;-1.80;1.00;;;;;;5055552;28;20555;-57
2023/02/07 08:34:36;;;;;;;25.13;16.27;;;-1.80;1.00;;;;;;5060304;28;20461;-58
2023/02/07 08:37:07;;;;;;;27.30;17.27;;;-1.70;1.00;;;;;;5055287;28;20279;-59
2023/02/07 08:39:35;;;;;;;24.93;15.73;;;-1.60;1.00;;;;;;5062538;28;20297;-58
2023/02/07 08:42:04;;;;;;;26.73;16.33;;;-1.50;1.00;;;;;;5056334;28;20447;-59
2023/02/07 08:44:30;;;;;;;24.27;15.00;;;-1.40;1.00;;;;;;5053363;28;20477;-57
2023/02/07 08:46:55;;;;;;;23.63;16.50;;;-1.30;1.00;;;;;;5053117;28;20451;-59
2023/02/07 08:49:21;;;;;;;21.40;15.70;;;-1.30;1.00;;;;;;5064085;28;20432;-57
2023/02/07 08:51:46;;;;;;;27.20;15.63;;;-1.20;1.00;;;;;;5060716;28;20184;-58
2023/02/07 08:54:13;;;;;;;23.03;16.07;;;-1.10;1.00;;;;;;5062014;28;20713;-59
2023/02/07 08:56:41;;;;;;;22.77;15.07;;;-0.90;1.00;;;;;;5058118;28;20654;-58
2023/02/07 08:59:07;;;;;;;25.90;15.83;;;-0.60;1.00;;;;;;5061198;28;20782;-56
2023/02/07 09:01:32;;;;;;;28.20;16.53;;;-0.30;1.00;;;;;;5061393;28;20459;-57
2023/02/07 09:03:58;;;;;;;25.77;16.20;;;0.00;1.00;;;;;;5056671;28;20220;-57
2023/02/07 09:06:25;;;;;;;27.77;18.30;;;0.20;1.00;;;;;;5058230;28;20238;-58
2023/02/07 09:08:51;;;;;;;23.27;16.60;;;0.30;1.00;;;;;;5058949;28;20189;-56
2023/02/07 09:11:16;;;;;;;25.73;17.30;;;0.20;1.00;;;;;;5059863;28;20783;-57
2023/02/07 09:13:44;;;;;;;26.00;15.50;;;0.20;1.00;;;;;;5062108;28;20462;-57
2023/02/07 09:16:10;;;;;;;23.23;16.20;;;0.00;1.00;;;;;;5048576;28;20187;-57
2023/02/07 09:18:36;;;;;;;27.63;16.57;;;0.00;1.00;;;;;;5049649;28;20979;-58
2023/02/07 09:21:03;;;;;;;25.13;17.40;;;0.10;1.00;;;;;;5059543;28;20534;-57
2023/02/07 09:23:31;;;;;;;24.57;16.17;;;0.10;1.00;;;;;;5065598;28;20216;-57
2023/02/07 09:26:01;;;;;;;28.93;18.73;;;0.30;1.00;;;;;;5049287;28;20461;-57
2023/02/07 09:28:27;;;;;;;25.30;16.50;;;0.40;1.00;;;;;;5065673;28;20600;-57
2023/02/07 09:30:53;;;;;;;25.37;15.80;;;0.50;1.00;;;;;;5059649;28;20444;-57
2023/02/07 09:33:19;;;;;;;24.60;16.43;;;0.60;1.00;;;;;;5059712;28;20493;-57
2023/02/07 09:35:46;;;;;;;26.63;17.20;;;0.70;1.00;;;;;;5061952;28;20211;-57
2023/02/07 09:38:24;;;;;;;22.40;15.60;;;0.80;1.00;;;;;;5058266;28;20441;-57
2023/02/07 09:40:51;;;;;;;26.70;16.93;;;0.70;1.00;;;;;;5050134;28;20807;-58
2023/02/07 09:43:45;;;;;;;25.83;15.30;;;0.80;1.00;;;;;;5058263;28;20468;-57
2023/02/07 09:46:22;;;;;;;27.47;16.63;;;1.00;1.00;;;;;;5058356;28;20475;-57
2023/02/07 09:48:54;;;;;;;29.40;15.27;;;1.10;1.00;;;;;;5054006;28;20460;-55
2023/02/07 09:51:22;;;;;;;22.33;15.00;;;1.20;1.00;;;;;;5049618;28;20499;-58
2023/02/07 09:54:03;;;;;;;24.00;14.80;;;1.30;1.00;;;;;;5053150;28;20488;-57
2023/02/07 09:56:31;;;;;;;21.57;14.53;;;1.40;1.00;;;;;;5058968;28;20440;-58
2023/02/07 09:59:37;;;;;;;25.07;16.97;;;1.40;1.00;;;;;;5055975;28;20448;-57
2023/02/07 10:02:12;;;;;;;19.40;15.40;;;1.60;1.00;;;;;;5059562;28;20435;-58
2023/02/07 10:04:42;;;;;;;21.67;15.70;;;1.80;1.00;;;;;;5058514;28;20466;-58
2023/02/07 10:07:12;;;;;;;22.40;16.43;;;1.70;1.00;;;;;;5059421;28;20436;-57
2023/02/07 10:09:41;;;;;;;25.10;16.10;;;1.80;1.00;;;;;;5060620;28;20440;-60
2023/02/07 10:12:40;;;;;;;24.30;16.13;;;2.00;1.00;;;;;;5059028;28;20524;-56
2023/02/07 10:15:15;;;;;;;24.60;15.53;;;2.20;1.00;;;;;;5064733;28;20472;-56
2023/02/07 10:18:05;;;;;;;21.83;15.23;;;2.30;1.00;;;;;;5053413;28;20442;-56
2023/02/07 10:20:43;;;;;;;19.90;14.87;;;2.30;1.00;;;;;;5057131;28;20526;-55
2023/02/07 10:23:15;;;;;;;27.43;16.77;;;2.10;1.00;;;;;;5048547;28;20490;-52
2023/02/07 10:25:54;;;;;;;24.40;15.30;;;2.10;1.00;;;;;;5049921;28;20506;-56
2023/02/07 10:28:29;;;;;;;23.90;16.70;;;1.80;1.00;;;;;;5048054;28;20873;-54
2023/02/07 10:31:01;;;;;;;20.87;16.60;;;1.80;1.00;;;;;;5063480;28;20429;-52
2023/02/07 10:33:32;;;;;;;22.90;15.77;;;2.10;1.00;;;;;;5066603;28;20506;-53
2023/02/07 10:36:03;;;;;;;26.23;17.73;;;2.00;1.00;;;;;;5054718;28;20532;-53
2023/02/07 10:39:11;;;;;;;22.87;16.27;;;2.00;1.00;;;;;;5053767;28;20440;-53
2023/02/07 10:41:39;;;;;;;25.97;15.50;;;2.20;1.00;;;;;;5060595;28;20881;-53
2023/02/07 10:44:08;;;;;;;22.00;16.23;;;2.20;1.00;;;;;;5053402;28;20503;-55
2023/02/07 10:46:36;;;;;;;25.57;16.70;;;2.40;1.00;;;;;;5059077;28;20442;-54
2023/02/07 10:49:02;;;;;;;19.80;15.87;;;2.40;1.00;;;;;;5057044;28;20846;-53
2023/02/07 10:51:40;;;;;;;20.57;14.67;;;2.40;1.00;;;;;;5048528;28;20436;-53
2023/02/07 10:54:07;;;;;;;21.10;15.50;;;2.50;1.00;;;;;;5048188;28;20252;-54
2023/02/07 10:56:39;;;;;;;26.20;16.87;;;2.60;1.00;;;;;;5063994;28;20496;-55
2023/02/07 10:59:05;;;;;;;23.87;16.60;;;2.60;1.00;;;;;;5057947;28;20455;-55
2023/02/07 11:01:33;;;;;;;26.63;15.83;;;2.60;1.00;;;;;;5049015;28;20534;-54
2023/02/07 11:03:59;;;;;;;27.53;18.20;;;2.60;1.00;;;;;;5047513;28;20821;-54
2023/02/07 11:06:32;;;;;;;24.57;17.30;;;2.60;1.00;;;;;;5053355;28;20444;-53
2023/02/07 11:09:17;;;;;;;31.57;17.50;;;2.80;1.00;;;;;;5051208;28;20444;-54
2023/02/07 11:11:50;;;;;;;25.73;17.60;;;2.80;1.00;;;;;;5051448;28;20440;-54
2023/02/07 11:14:20;;;;;;;23.47;17.50;;;2.90;1.00;;;;;;5049414;28;20461;-52
2023/02/07 11:16:46;;;;;;;27.83;17.97;;;3.20;1.00;;;;;;5061158;28;20453;-54
2023/02/07 11:19:21;;;;;;;27.37;18.07;;;2.90;1.00;;;;;;5057048;28;20464;-54
2023/02/07 11:21:49;;;;;;;25.90;18.20;;;2.80;1.00;;;;;;5051632;28;20452;-54
2023/02/07 11:24:24;;;;;;;24.30;18.23;;;2.90;1.00;;;;;;5047587;28;20488;-53
2023/02/07 11:27:01;;;;;;;28.73;17.93;;;2.80;1.00;;;;;;5032069;28;20435;-55
2023/02/07 11:29:30;;;;;;;24.10;17.73;;;3.00;1.00;;;;;;5050770;28;20444;-58
2023/02/07 11:31:59;;;;;;;27.70;17.73;;;3.10;1.00;;;;;;5049518;28;20651;-56
2023/02/07 11:34:46;;;;;;;23.00;17.43;;;3.20;1.00;;;;;;5048933;28;20448;-54
2023/02/07 11:37:28;;;;;;;22.60;16.67;;;3.10;1.00;;;;;;5047571;28;20486;-56
2023/02/07 11:40:13;;;;;;;23.73;17.50;;;2.90;1.00;;;;;;5049984;28;20440;-54
2023/02/07 11:42:39;;;;;;;30.73;19.07;;;3.10;1.00;;;;;;5048573;28;20462;-55
2023/02/07 11:45:13;;;;;;;25.23;17.30;;;3.40;1.00;;;;;;5048366;28;20793;-53
2023/02/07 11:47:41;;;;;;;26.23;19.03;;;3.70;1.00;;;;;;5050181;28;20485;-55
2023/02/07 11:50:15;;;;;;;28.37;18.90;;;3.50;1.00;;;;;;5053363;28;20488;-56
2023/02/07 11:52:53;;;;;;;26.07;19.37;;;3.50;1.00;;;;;;5052406;28;20455;-54
2023/02/07 11:55:24;;;;;;;25.70;17.80;;;3.70;1.00;;;;;;5049198;28;20460;-53
2023/02/07 11:57:50;;;;;;;24.50;18.47;;;4.00;1.00;;;;;;5043023;28;20420;-54
2023/02/07 12:00:23;;;;;;;26.13;18.63;;;4.10;1.00;;;;;;5047392;28;20573;-53
2023/02/07 12:03:01;;;;;;;24.33;18.93;;;4.00;1.00;;;;;;5050136;28;20182;-54
2023/02/07 12:05:50;;;;;;;25.90;19.97;;;4.00;1.00;;;;;;5047734;28;20454;-55
2023/02/07 12:08:21;;;;;;;27.53;19.50;;;4.20;1.00;;;;;;5054778;28;20444;-55
2023/02/07 12:10:53;;;;;;;27.00;18.87;;;4.30;1.00;;;;;;5047800;28;21186;-53
2023/02/07 12:14:00;;;;;;;27.13;19.50;;;4.40;1.00;;;;;;5070324;28;20438;-56
2023/02/07 12:16:31;;;;;;;27.47;19.87;;;4.40;1.00;;;;;;5031823;28;20469;-54
2023/02/07 12:19:17;;;;;;;30.30;20.20;;;4.50;1.00;;;;;;5050038;28;20433;-53
2023/02/07 12:21:52;;;;;;;28.67;21.13;;;4.40;1.00;;;;;;5048445;28;20544;-53
2023/02/07 12:24:42;;;;;;;29.77;21.23;;;4.30;1.00;;;;;;5049667;28;20807;-55
2023/02/07 12:27:07;;;;;;;25.37;18.80;;;4.20;1.00;;;;;;5050396;28;20452;-56
2023/02/07 12:30:00;;;;;;;27.97;20.37;;;4.10;1.00;;;;;;5061193;28;20489;-55
2023/02/07 12:32:57;;;;;;;28.43;19.90;;;4.00;1.00;;;;;;5047335;28;20213;-54
2023/02/07 12:35:37;;;;;;;25.03;19.03;;;3.90;1.00;;;;;;5044874;28;20447;-55
2023/02/07 12:38:31;;;;;;;24.70;18.77;;;3.90;1.00;;;;;;5048764;28;21103;-54
2023/02/07 12:41:33;;;;;;;30.23;20.43;;;3.80;1.00;;;;;;5049879;28;20457;-54
2023/02/07 12:44:14;;;;;;;28.13;19.60;;;3.90;1.00;;;;;;5025305;28;20490;-54
2023/02/07 12:46:52;;;;;;;25.30;19.73;;;4.10;1.00;;;;;;5048094;28;20519;-56
2023/02/07 12:49:43;;;;;;;26.80;20.10;;;4.10;1.00;;;;;;5048564;28;20442;-55
2023/02/07 12:52:27;;;;;;;24.93;19.40;;;4.10;1.00;;;;;;5049008;28;20449;-53
2023/02/07 12:55:22;;;;;;;26.60;19.13;;;4.20;1.00;;;;;;5048656;28;20464;-53
2023/02/07 12:58:12;;;;;;;25.73;19.83;;;4.10;1.00;;;;;;5048000;28;20442;-54
2023/02/07 13:01:06;;;;;;;26.73;20.20;;;3.90;1.00;;;;;;5048178;28;20524;-58